Time;durP1;ratioP1;P1;durP2;ratioP2;P2;SDS_P1;SDS_P2;PMS_P1;PMS_P2;Temp;Humidity;BMP_temperature;BMP_pressure;BME280_temperature;BME280_humidity;BME280_pressure;Samples;Min_cycle;Max_cycle;Signal;HPM_P1;HPM_P2
2021/12/10 00:02:56;;;;;;;3.33;2.83;;;;;;;-146.19;100.00;65364.44;10466554;28;20448;-56
2021/12/10 00:08:16;;;;;;;3.25;2.75;;;;;;;-146.19;100.00;65364.44;10465424;28;20045;-56
2021/12/10 00:13:36;;;;;;;3.97;2.92;;;;;;;-146.19;100.00;65364.44;10464971;28;20051;-56
2021/12/10 00:19:09;;;;;;;3.08;2.70;;;;;;;-146.19;100.00;65364.44;10480433;28;20067;-56
2021/12/10 00:24:30;;;;;;;3.40;3.03;;;;;;;-146.19;100.00;65364.44;10466432;28;20060;-56
2021/12/10 00:29:50;;;;;;;3.33;2.72;;;;;;;-146.19;100.00;65364.44;10466946;28;20068;-56
2021/12/10 00:35:20;;;;;;;2.60;2.33;;;;;;;-146.19;100.00;65364.44;10465281;28;20553;-56
2021/12/10 00:40:41;;;;;;;2.83;2.50;;;;;;;-146.19;100.00;65364.44;10465479;28;20041;-56
2021/12/10 00:46:01;;;;;;;3.30;2.63;;;;;;;-146.19;100.00;65364.44;10465317;28;20049;-56
2021/12/10 00:51:20;;;;;;;3.08;2.58;;;;;;;-146.19;100.00;65364.44;10466246;28;20432;-56
2021/12/10 00:56:42;;;;;;;2.97;2.60;;;;;;;-146.19;100.00;65364.44;10477477;28;20056;-56
2021/12/10 01:02:05;;;;;;;2.60;2.40;;;;;;;-146.19;100.00;65364.44;10476782;28;20041;-56
2021/12/10 01:07:28;;;;;;;2.60;2.25;;;;;;;-146.19;100.00;65364.44;10464451;28;20552;-56
2021/12/10 01:12:50;;;;;;;2.80;2.42;;;;;;;-146.19;100.00;65364.44;10466683;28;20040;-57
2021/12/10 01:24:49;;;;;;;3.30;2.35;;;;;;;-146.19;100.00;65364.44;10469967;28;20079;-56
2021/12/10 01:29:57;;;;;;;2.88;2.42;;;;;;;-146.19;100.00;65364.44;10462740;28;20048;-56
2021/12/10 01:35:21;;;;;;;2.95;2.40;;;;;;;-146.19;100.00;65364.44;10477027;28;20056;-56
2021/12/10 01:40:46;;;;;;;2.40;2.17;;;;;;;-146.19;100.00;65364.44;10476043;28;20043;-56
2021/12/10 01:46:18;;;;;;;2.40;2.20;;;;;;;-146.19;100.00;65364.44;10462447;28;20452;-56
2021/12/10 01:51:39;;;;;;;2.97;2.20;;;;;;;-146.19;100.00;65364.44;10470424;28;20056;-56
2021/12/10 01:57:00;;;;;;;2.47;2.22;;;;;;;-146.19;100.00;65364.44;10519353;28;20094;-56
2021/12/10 02:02:28;;;;;;;2.40;2.20;;;;;;;-146.19;100.00;65364.44;10477674;28;20037;-56
2021/12/10 02:07:48;;;;;;;2.90;2.50;;;;;;;-146.19;100.00;65364.44;10463656;28;20056;-56
2021/12/10 02:13:08;;;;;;;2.40;2.20;;;;;;;-146.19;100.00;65364.44;10461634;28;20051;-56
2021/12/10 02:18:27;;;;;;;2.08;1.88;;;;;;;-146.19;100.00;65364.44;10462520;28;20106;-56
2021/12/10 02:23:57;;;;;;;2.13;1.85;;;;;;;-146.19;100.00;65364.44;10463393;28;20723;-55
2021/12/10 02:29:20;;;;;;;2.47;2.13;;;;;;;-146.19;100.00;65364.44;10462414;28;20057;-55
2021/12/10 02:34:41;;;;;;;2.50;2.30;;;;;;;-146.19;100.00;65364.44;10461743;28;20060;-56
2021/12/10 02:40:00;;;;;;;2.13;1.90;;;;;;;-146.19;100.00;65364.44;10462459;28;20040;-56
2021/12/10 02:45:22;;;;;;;2.53;2.08;;;;;;;-146.19;100.00;65364.44;10460479;28;20063;-56
2021/12/10 02:50:44;;;;;;;1.98;1.80;;;;;;;-146.19;100.00;65364.44;10476803;28;20547;-56
2021/12/10 02:56:04;;;;;;;2.28;1.80;;;;;;;-146.19;100.00;65364.44;10469635;28;20613;-56
2021/12/10 03:01:45;;;;;;;2.03;1.83;;;;;;;-146.19;100.00;65364.44;10503754;28;20483;-56
2021/12/10 03:07:11;;;;;;;2.55;1.92;;;;;;;-146.19;100.00;65364.44;10501868;28;20049;-55
2021/12/10 03:12:31;;;;;;;2.05;1.85;;;;;;;-146.19;100.00;65364.44;10492231;28;20658;-56
2021/12/10 03:17:51;;;;;;;2.10;1.90;;;;;;;-146.19;100.00;65364.44;10450411;28;20420;-56
2021/12/10 03:23:12;;;;;;;1.95;1.70;;;;;;;-146.19;100.00;65364.44;10467894;28;20064;-56
2021/12/10 03:28:31;;;;;;;2.45;2.10;;;;;;;-146.19;100.00;65364.44;10468063;28;20045;-57
2021/12/10 03:33:53;;;;;;;1.60;1.50;;;;;;;-146.19;100.00;65364.44;10468948;28;20056;-56
2021/12/10 03:39:18;;;;;;;1.98;1.77;;;;;;;-146.19;100.00;65364.44;10468368;28;20117;-56
2021/12/10 03:44:38;;;;;;;2.33;2.00;;;;;;;-146.19;100.00;65364.44;10482259;28;20522;-55
2021/12/10 03:49:57;;;;;;;2.10;1.90;;;;;;;-146.19;100.00;65364.44;10468597;28;20061;-56
2021/12/10 03:55:18;;;;;;;1.90;1.80;;;;;;;-146.19;100.00;65364.44;10466389;28;20143;-56
2021/12/10 04:00:44;;;;;;;2.03;1.83;;;;;;;-146.19;100.00;65364.44;10466906;28;20480;-56
2021/12/10 04:06:04;;;;;;;2.20;1.77;;;;;;;-146.19;100.00;65364.44;10464863;28;20419;-56
2021/12/10 04:11:23;;;;;;;1.75;1.63;;;;;;;-146.19;100.00;65364.44;10474183;28;20040;-56
2021/12/10 04:16:44;;;;;;;1.73;1.63;;;;;;;-146.19;100.00;65364.44;10463874;28;20064;-56
2021/12/10 04:22:06;;;;;;;2.22;1.70;;;;;;;-146.19;100.00;65364.44;10479867;28;20048;-56
2021/12/10 04:27:26;;;;;;;1.75;1.42;;;;;;;-146.19;100.00;65364.44;10465409;28;20557;-56
2021/12/10 04:32:46;;;;;;;1.65;1.55;;;;;;;-146.19;100.00;65364.44;10482303;28;20102;-56
2021/12/10 04:38:06;;;;;;;1.88;1.67;;;;;;;-146.19;100.00;65364.44;10478591;28;20052;-56
2021/12/10 04:43:26;;;;;;;1.40;1.30;;;;;;;-146.19;100.00;65364.44;10477503;28;20033;-56
2021/12/10 04:48:51;;;;;;;1.60;1.42;;;;;;;-146.19;100.00;65364.44;10463962;28;20526;-56
2021/12/10 04:54:13;;;;;;;1.40;1.30;;;;;;;-146.19;100.00;65364.44;10464330;28;20049;-56
2021/12/10 04:59:34;;;;;;;1.70;1.33;;;;;;;-146.19;100.00;65364.44;10464352;28;20471;-56
2021/12/10 05:04:57;;;;;;;1.40;1.30;;;;;;;-146.19;100.00;65364.44;10476033;28;20103;-56
2021/12/10 05:10:18;;;;;;;1.70;1.45;;;;;;;-146.19;100.00;65364.44;10457896;28;20060;-56
2021/12/10 05:15:38;;;;;;;1.50;1.40;;;;;;;-146.19;100.00;65364.44;10475316;28;20530;-55
2021/12/10 05:20:58;;;;;;;1.60;1.50;;;;;;;-146.19;100.00;65364.44;10462591;28;20075;-56
2021/12/10 05:26:18;;;;;;;1.95;1.63;;;;;;;-146.19;100.00;65364.44;10460252;28;20056;-56
2021/12/10 05:31:40;;;;;;;1.92;1.67;;;;;;;-146.19;100.00;65364.44;10445774;28;20502;-56
2021/12/10 05:37:00;;;;;;;1.70;1.60;;;;;;;-146.19;100.00;65364.44;10459979;28;20049;-56
2021/12/10 05:42:20;;;;;;;2.72;1.60;;;;;;;-146.19;100.00;65364.44;10461091;28;20056;-57
2021/12/10 05:47:40;;;;;;;1.98;1.60;;;;;;;-146.19;100.00;65364.44;10463252;28;20049;-56
2021/12/10 05:52:59;;;;;;;1.75;1.42;;;;;;;-146.19;100.00;65364.44;10461665;28;20107;-56
2021/12/10 05:58:20;;;;;;;3.08;1.50;;;;;;;-146.19;100.00;65364.44;10462303;28;20048;-55
2021/12/10 06:03:50;;;;;;;1.85;1.55;;;;;;;-146.19;100.00;65364.44;10476195;28;20033;-54
2021/12/10 06:09:10;;;;;;;1.92;1.48;;;;;;;-146.19;100.00;65364.44;10461614;28;20579;-56
2021/12/10 06:14:30;;;;;;;2.55;1.50;;;;;;;-146.19;100.00;65364.44;10463464;28;20049;-55
2021/12/10 06:19:50;;;;;;;6.43;2.38;;;;;;;-146.19;100.00;65364.44;10458993;28;20447;-56
2021/12/10 06:25:10;;;;;;;4.38;2.28;;;;;;;-146.19;100.00;65364.44;10460856;28;20060;-55
2021/12/10 06:30:33;;;;;;;6.13;2.83;;;;;;;-146.19;100.00;65364.44;10463403;28;21654;-56
2021/12/10 06:35:53;;;;;;;7.10;2.83;;;;;;;-146.19;100.00;65364.44;10465407;28;20476;-56
2021/12/10 06:41:14;;;;;;;6.07;2.83;;;;;;;-146.19;100.00;65364.44;10483520;28;20051;-56
2021/12/10 06:46:34;;;;;;;9.18;3.00;;;;;;;-146.19;100.00;65364.44;10468082;28;20053;-56
2021/12/10 06:51:53;;;;;;;9.95;3.28;;;;;;;-146.19;100.00;65364.44;10468602;28;20113;-56
2021/12/10 06:57:13;;;;;;;14.77;3.47;;;;;;;-146.19;100.00;65364.44;10482338;28;20619;-56
2021/12/10 07:02:33;;;;;;;5.95;2.72;;;;;;;-146.19;100.00;65364.44;10483368;28;20064;-55
2021/12/10 07:07:54;;;;;;;6.03;2.80;;;;;;;-146.19;100.00;65364.44;10489059;28;20064;-55
2021/12/10 07:13:15;;;;;;;7.38;2.58;;;;;;;-146.19;100.00;65364.44;10517835;28;20689;-56
2021/12/10 07:18:34;;;;;;;5.90;2.50;;;;;;;-146.19;100.00;65364.44;10453348;28;20068;-56
2021/12/10 07:23:54;;;;;;;7.68;2.67;;;;;;;-146.19;100.00;65364.44;10479095;28;20419;-56
2021/12/10 07:29:14;;;;;;;5.25;2.50;;;;;;;-146.19;100.00;65364.44;10490378;28;20056;-56
2021/12/10 07:34:33;;;;;;;6.72;2.50;;;;;;;-146.19;100.00;65364.44;10488985;28;20117;-55
2021/12/10 07:39:53;;;;;;;5.22;2.38;;;;;;;-146.19;100.00;65364.44;10524070;28;20044;-56
2021/12/10 07:45:13;;;;;;;5.00;2.67;;;;;;;-146.19;100.00;65364.44;10477919;28;20057;-56
2021/12/10 07:50:35;;;;;;;6.55;2.72;;;;;;;-146.19;100.00;65364.44;10510293;28;20518;-56
2021/12/10 07:55:56;;;;;;;4.38;2.10;;;;;;;-146.19;100.00;65364.44;10504895;28;20037;-56
2021/12/10 08:01:19;;;;;;;5.07;2.42;;;;;;;-146.19;100.00;65364.44;10480607;28;20087;-56
2021/12/10 08:06:39;;;;;;;4.93;2.33;;;;;;;-146.19;100.00;65364.44;10478273;28;20178;-56
2021/12/10 08:11:59;;;;;;;6.07;2.25;;;;;;;-146.19;100.00;65364.44;10466815;28;20052;-56
2021/12/10 08:17:20;;;;;;;4.60;2.40;;;;;;;-146.19;100.00;65364.44;10479576;28;20091;-55
2021/12/10 08:22:40;;;;;;;5.25;2.30;;;;;;;-146.19;100.00;65364.44;10462021;28;20068;-56
2021/12/10 08:28:00;;;;;;;4.60;2.47;;;;;;;-146.19;100.00;65364.44;10464914;28;20045;-56
2021/12/10 08:33:20;;;;;;;3.90;2.20;;;;;;;-146.19;100.00;65364.44;10480263;28;20102;-56
2021/12/10 08:38:40;;;;;;;4.28;2.10;;;;;;;-146.19;100.00;65364.44;10479914;28;20052;-56
2021/12/10 08:44:01;;;;;;;3.45;2.05;;;;;;;-146.19;100.00;65364.44;10480430;28;20566;-56
2021/12/10 08:49:20;;;;;;;3.53;2.10;;;;;;;-146.19;100.00;65364.44;10462261;28;20606;-56
2021/12/10 08:54:41;;;;;;;3.88;1.90;;;;;;;-146.19;100.00;65364.44;10478644;28;20370;-56
2021/12/10 09:00:04;;;;;;;3.65;1.98;;;;;;;-146.19;100.00;65364.44;10460255;28;20641;-56
2021/12/10 09:05:25;;;;;;;5.05;1.92;;;;;;;-146.19;100.00;65364.44;10476844;28;20052;-56
2021/12/10 09:10:45;;;;;;;4.05;2.20;;;;;;;-146.19;100.00;65364.44;10476356;28;20044;-56
2021/12/10 09:16:11;;;;;;;3.50;2.08;;;;;;;-146.19;100.00;65364.44;10492716;28;20507;-55
2021/12/10 09:21:33;;;;;;;5.78;2.40;;;;;;;-146.19;100.00;65364.44;10481668;28;20451;-56
2021/12/10 09:26:56;;;;;;;5.95;1.98;;;;;;;-146.19;100.00;65364.44;10499004;28;20036;-56
2021/12/10 09:32:17;;;;;;;3.53;1.90;;;;;;;-146.19;100.00;65364.44;10503126;28;20689;-56
2021/12/10 09:37:40;;;;;;;4.50;1.80;;;;;;;-146.19;100.00;65364.44;10489661;28;20072;-56
2021/12/10 09:43:00;;;;;;;4.55;1.98;;;;;;;-146.19;100.00;65364.44;10488999;28;20052;-56
2021/12/10 09:48:21;;;;;;;1.98;1.73;;;;;;;-146.19;100.00;65364.44;10489468;28;20063;-56
2021/12/10 09:53:44;;;;;;;3.92;1.90;;;;;;;-146.19;100.00;65364.44;10486585;28;20044;-56
2021/12/10 09:59:04;;;;;;;5.38;2.90;;;;;;;-146.19;100.00;65364.44;10461899;28;20057;-55
2021/12/10 10:04:26;;;;;;;3.72;2.40;;;;;;;-146.19;100.00;65364.44;10478973;28;20040;-55
2021/12/10 10:09:50;;;;;;;5.28;2.22;;;;;;;-146.19;100.00;65364.44;10472855;28;20044;-55
2021/12/10 10:15:13;;;;;;;4.20;1.95;;;;;;;-146.19;100.00;65364.44;10521361;28;20037;-55
2021/12/10 10:20:36;;;;;;;2.75;1.80;;;;;;;-146.19;100.00;65364.44;10481475;28;20060;-55
2021/12/10 10:25:59;;;;;;;3.42;2.00;;;;;;;-146.19;100.00;65364.44;10449784;28;20136;-55
2021/12/10 10:31:22;;;;;;;2.45;1.80;;;;;;;-146.19;100.00;65364.44;10469861;28;20048;-55
2021/12/10 10:36:42;;;;;;;2.95;2.00;;;;;;;-146.19;100.00;65364.44;10462424;28;20075;-56
2021/12/10 10:42:06;;;;;;;4.32;2.13;;;;;;;-146.19;100.00;65364.44;10476236;28;20044;-55
2021/12/10 10:47:26;;;;;;;4.45;3.47;;;;;;;-146.19;100.00;65364.44;10443642;28;20099;-56
2021/12/10 10:52:49;;;;;;;3.67;2.10;;;;;;;-146.19;100.00;65364.44;10472754;28;20044;-56
2021/12/10 10:58:14;;;;;;;4.70;2.45;;;;;;;-146.19;100.00;65364.44;10458041;28;20049;-55
2021/12/10 11:03:42;;;;;;;2.90;2.22;;;;;;;-146.19;100.00;65364.44;10475756;28;20094;-55
2021/12/10 11:09:21;;;;;;;4.07;2.35;;;;;;;-146.19;100.00;65364.44;10459781;28;20061;-55
2021/12/10 11:14:50;;;;;;;3.35;2.33;;;;;;;-146.19;100.00;65364.44;10466455;28;20052;-56
2021/12/10 11:20:25;;;;;;;2.60;2.10;;;;;;;-146.19;100.00;65364.44;10467679;28;20056;-55
2021/12/10 11:25:49;;;;;;;5.32;2.05;;;;;;;-146.19;100.00;65364.44;10468014;28;20502;-55
2021/12/10 11:31:13;;;;;;;3.05;2.20;;;;;;;-146.19;100.00;65364.44;10467074;28;20044;-56
2021/12/10 11:36:36;;;;;;;2.83;2.30;;;;;;;-146.19;100.00;65364.44;10466926;28;20056;-55
2021/12/10 11:41:56;;;;;;;3.80;1.95;;;;;;;-146.19;100.00;65364.44;10480139;28;20056;-56
2021/12/10 11:47:28;;;;;;;3.65;2.30;;;;;;;-146.19;100.00;65364.44;10465485;28;20072;-55
2021/12/10 11:53:10;;;;;;;2.50;2.30;;;;;;;-146.19;100.00;65364.44;10466004;28;20682;-55
2021/12/10 11:58:29;;;;;;;3.25;2.00;;;;;;;-146.19;100.00;65364.44;10466674;28;20044;-55
2021/12/10 12:03:49;;;;;;;2.90;2.13;;;;;;;-146.19;100.00;65364.44;10467759;28;20488;-56
2021/12/10 12:09:31;;;;;;;4.00;2.13;;;;;;;-146.19;100.00;65364.44;10477969;28;20748;-55
2021/12/10 12:14:53;;;;;;;2.47;1.95;;;;;;;-146.19;100.00;65364.44;10466813;28;20045;-55
2021/12/10 12:20:44;;;;;;;3.35;2.00;;;;;;;-146.19;100.00;65364.44;10479727;28;20059;-55
2021/12/10 12:26:15;;;;;;;3.55;2.10;;;;;;;-146.19;100.00;65364.44;10464976;28;20060;-55
2021/12/10 12:31:37;;;;;;;2.67;1.95;;;;;;;-146.19;100.00;65364.44;10466288;28;20636;-56
2021/12/10 12:37:02;;;;;;;2.38;1.73;;;;;;;-146.19;100.00;65364.44;10461064;28;20530;-55
2021/12/10 12:42:23;;;;;;;3.28;1.52;;;;;;;-146.19;100.00;65364.44;10463869;28;20052;-55
2021/12/10 12:47:49;;;;;;;2.38;1.75;;;;;;;-146.19;100.00;65364.44;10463757;28;20695;-55
2021/12/10 12:53:16;;;;;;;3.72;2.10;;;;;;;-146.19;100.00;65364.44;10478960;28;20105;-55
2021/12/10 12:58:42;;;;;;;2.25;1.60;;;;;;;-146.19;100.00;65364.44;10462266;28;20045;-55
2021/12/10 13:04:13;;;;;;;2.97;1.83;;;;;;;-146.19;100.00;65364.44;10476686;28;20736;-55
2021/12/10 13:09:52;;;;;;;1.85;1.67;;;;;;;-146.19;100.00;65364.44;10463287;28;20045;-55
2021/12/10 13:15:19;;;;;;;3.00;1.58;;;;;;;-146.19;100.00;65364.44;10462638;28;20543;-55
2021/12/10 13:20:45;;;;;;;3.00;1.80;;;;;;;-146.19;100.00;65364.44;10461166;28;20041;-55
2021/12/10 13:26:06;;;;;;;2.38;2.03;;;;;;;-146.19;100.00;65364.44;10465149;28;20049;-55
2021/12/10 13:31:26;;;;;;;2.60;1.70;;;;;;;-146.19;100.00;65364.44;10460645;28;20075;-55
2021/12/10 13:36:46;;;;;;;1.98;1.73;;;;;;;-146.19;100.00;65364.44;10475914;28;20648;-55
2021/12/10 13:42:05;;;;;;;2.30;1.70;;;;;;;-146.19;100.00;65364.44;10474421;28;20719;-55
2021/12/10 13:47:31;;;;;;;2.85;1.52;;;;;;;-146.19;100.00;65364.44;10517493;28;20043;-55
2021/12/10 13:53:00;;;;;;;1.77;1.50;;;;;;;-146.19;100.00;65364.44;10502057;28;20052;-56
2021/12/10 13:58:19;;;;;;;1.95;1.70;;;;;;;-146.19;100.00;65364.44;10507070;28;20048;-55
2021/12/10 14:03:42;;;;;;;1.92;1.70;;;;;;;-146.19;100.00;65364.44;10514964;28;20119;-56
2021/12/10 14:09:15;;;;;;;2.80;1.95;;;;;;;-146.19;100.00;65364.44;10516681;28;20070;-55
2021/12/10 14:14:38;;;;;;;2.80;1.42;;;;;;;-146.19;100.00;65364.44;10543218;28;20067;-55
2021/12/10 14:20:08;;;;;;;1.65;1.50;;;;;;;-146.19;100.00;65364.44;10562433;28;20102;-55
2021/12/10 14:25:50;;;;;;;2.00;1.50;;;;;;;-146.19;100.00;65364.44;10529141;28;20908;-55
2021/12/10 14:31:21;;;;;;;1.98;1.50;;;;;;;-146.19;100.00;65364.44;10498467;28;20083;-55
2021/12/10 14:36:44;;;;;;;1.92;1.65;;;;;;;-146.19;100.00;65364.44;10516492;28;20056;-55
2021/12/10 14:42:10;;;;;;;1.75;1.60;;;;;;;-146.19;100.00;65364.44;10514433;28;20056;-55
2021/12/10 14:47:29;;;;;;;3.88;1.80;;;;;;;-146.19;100.00;65364.44;10503899;28;20044;-55
2021/12/10 14:52:50;;;;;;;2.55;1.50;;;;;;;-146.19;100.00;65364.44;10530170;28;20118;-56
2021/12/10 14:58:17;;;;;;;2.60;1.80;;;;;;;-146.19;100.00;65364.44;10506220;28;20534;-55
2021/12/10 15:03:41;;;;;;;4.95;1.58;;;;;;;-146.19;100.00;65364.44;10546191;28;20036;-55
2021/12/10 15:09:07;;;;;;;1.70;1.58;;;;;;;-146.19;100.00;65364.44;10570238;28;20044;-55
2021/12/10 15:14:29;;;;;;;2.90;1.63;;;;;;;-146.19;100.00;65364.44;10535810;28;20051;-55
2021/12/10 15:19:53;;;;;;;1.83;1.55;;;;;;;-146.19;100.00;65364.44;10495300;28;20645;-55
2021/12/10 15:25:21;;;;;;;2.17;1.52;;;;;;;-146.19;100.00;65364.44;10540327;28;20113;-54
2021/12/10 15:30:41;;;;;;;1.70;1.60;;;;;;;-146.19;100.00;65364.44;10551269;28;20040;-55
2021/12/10 15:36:03;;;;;;;1.80;1.60;;;;;;;-146.19;100.00;65364.44;10500772;28;20052;-55
2021/12/10 15:41:22;;;;;;;1.80;1.30;;;;;;;-146.19;100.00;65364.44;10544835;28;20179;-55
2021/12/10 15:46:47;;;;;;;4.00;3.10;;;;;;;-146.19;100.00;65364.44;10541634;28;20063;-54
2021/12/10 15:52:11;;;;;;;4.13;1.90;;;;;;;-146.19;100.00;65364.44;10547549;28;20050;-55
2021/12/10 15:57:38;;;;;;;2.88;1.80;;;;;;;-146.19;100.00;65364.44;10530631;28;20036;-54
2021/12/10 16:02:58;;;;;;;2.83;1.90;;;;;;;-146.19;100.00;65364.44;10511306;28;20060;-56
2021/12/10 16:08:18;;;;;;;3.20;1.60;;;;;;;-146.19;100.00;65364.44;10524075;28;20115;-56
2021/12/10 16:13:44;;;;;;;2.60;1.60;;;;;;;-146.19;100.00;65364.44;10515407;28;20048;-58
2021/12/10 16:19:16;;;;;;;2.05;1.70;;;;;;;-146.19;100.00;65364.44;10537926;28;20044;-55
2021/12/10 16:24:40;;;;;;;3.05;1.70;;;;;;;-146.19;100.00;65364.44;10518935;28;20065;-56
2021/12/10 16:30:21;;;;;;;1.58;1.48;;;;;;;-146.19;100.00;65364.44;10504422;28;20048;-54
2021/12/10 16:35:49;;;;;;;7.45;2.97;;;;;;;-146.19;100.00;65364.44;10526249;28;20056;-54
2021/12/10 16:41:15;;;;;;;14.07;4.63;;;;;;;-146.19;100.00;65364.44;10504348;28;20079;-55
2021/12/10 16:46:37;;;;;;;8.85;3.35;;;;;;;-146.19;100.00;65364.44;10504728;28;20036;-55
2021/12/10 16:52:21;;;;;;;9.20;2.95;;;;;;;-146.19;100.00;65364.44;10504261;28;20083;-56
2021/12/10 16:57:43;;;;;;;7.05;2.70;;;;;;;-146.19;100.00;65364.44;10503545;28;20048;-57
2021/12/10 17:03:04;;;;;;;9.63;3.50;;;;;;;-146.19;100.00;65364.44;10505274;28;20435;-55
2021/12/10 17:08:27;;;;;;;6.05;2.55;;;;;;;-146.19;100.00;65364.44;10510142;28;20096;-54
2021/12/10 17:13:52;;;;;;;6.95;3.22;;;;;;;-146.19;100.00;65364.44;10512962;28;20048;-53
2021/12/10 17:19:16;;;;;;;5.13;3.03;;;;;;;-146.19;100.00;65364.44;10558178;28;20091;-53
2021/12/10 17:24:41;;;;;;;3.78;2.30;;;;;;;-146.19;100.00;65364.44;10509688;28;20570;-58
2021/12/10 17:30:24;;;;;;;5.70;2.47;;;;;;;-146.19;100.00;65364.44;10529147;28;20035;-61
2021/12/10 17:35:48;;;;;;;10.70;2.67;;;;;;;-146.19;100.00;65364.44;10550422;28;20050;-58
2021/12/10 17:41:12;;;;;;;8.55;2.65;;;;;;;-146.19;100.00;65364.44;10541815;28;20040;-55
2021/12/10 17:46:39;;;;;;;4.70;2.50;;;;;;;-146.19;100.00;65364.44;10513551;28;20048;-58
2021/12/10 17:52:01;;;;;;;2.97;2.53;;;;;;;-146.19;100.00;65364.44;10510226;28;20049;-60
2021/12/10 17:57:30;;;;;;;5.53;2.78;;;;;;;-146.19;100.00;65364.44;10503950;28;20055;-61
2021/12/10 18:02:59;;;;;;;4.82;2.63;;;;;;;-146.19;100.00;65364.44;10490049;28;20060;-57
2021/12/10 18:08:22;;;;;;;9.50;2.55;;;;;;;-146.19;100.00;65364.44;10518572;28;20044;-58
2021/12/10 18:13:46;;;;;;;4.82;2.42;;;;;;;-146.19;100.00;65364.44;10511700;28;20044;-55
2021/12/10 18:19:06;;;;;;;3.97;2.72;;;;;;;-146.19;100.00;65364.44;10505771;28;20041;-55
2021/12/10 18:24:27;;;;;;;5.05;2.60;;;;;;;-146.19;100.00;65364.44;10532851;28;20109;-55
2021/12/10 18:29:47;;;;;;;4.80;2.47;;;;;;;-146.19;100.00;65364.44;10537407;28;20110;-55
2021/12/10 18:35:10;;;;;;;4.20;2.28;;;;;;;-146.19;100.00;65364.44;10508033;28;20474;-55
2021/12/10 18:40:41;;;;;;;4.35;2.70;;;;;;;-146.19;100.00;65364.44;10521614;28;20045;-57
2021/12/10 18:46:04;;;;;;;5.32;2.72;;;;;;;-146.19;100.00;65364.44;10525867;28;20040;-55
2021/12/10 18:51:31;;;;;;;4.82;2.72;;;;;;;-146.19;100.00;65364.44;10525500;28;20052;-56
2021/12/10 18:57:07;;;;;;;7.82;2.95;;;;;;;-146.19;100.00;65364.44;10546451;28;20044;-55
2021/12/10 19:02:33;;;;;;;5.68;2.72;;;;;;;-146.19;100.00;65364.44;10527551;28;20048;-58
2021/12/10 19:07:55;;;;;;;5.30;2.97;;;;;;;-146.19;100.00;65364.44;10518992;28;20074;-58
2021/12/10 19:13:19;;;;;;;5.63;2.88;;;;;;;-146.19;100.00;65364.44;10537598;28;20043;-55
2021/12/10 19:18:43;;;;;;;6.50;2.90;;;;;;;-146.19;100.00;65364.44;10531882;28;20519;-57
2021/12/10 19:24:11;;;;;;;6.97;2.85;;;;;;;-146.19;100.00;65364.44;10516370;28;20474;-58
2021/12/10 19:29:33;;;;;;;4.23;2.57;;;;;;;-146.19;100.00;65364.44;10494530;28;20044;-57
2021/12/10 19:34:58;;;;;;;4.80;2.50;;;;;;;-146.19;100.00;65364.44;10508010;28;20094;-56
2021/12/10 19:40:25;;;;;;;6.55;2.88;;;;;;;-146.19;100.00;65364.44;10510800;28;20503;-51
2021/12/10 19:45:53;;;;;;;5.00;2.85;;;;;;;-146.19;100.00;65364.44;10515021;28;20554;-55
2021/12/10 19:51:18;;;;;;;6.17;2.90;;;;;;;-146.19;100.00;65364.44;10514084;28;20507;-55
2021/12/10 19:56:42;;;;;;;5.55;3.00;;;;;;;-146.19;100.00;65364.44;10512727;28;20816;-56
2021/12/10 20:02:08;;;;;;;6.25;2.92;;;;;;;-146.19;100.00;65364.44;10504940;28;20411;-54
2021/12/10 20:07:30;;;;;;;9.48;7.85;;;;;;;-146.19;100.00;65364.44;10505020;28;20080;-55
2021/12/10 20:12:55;;;;;;;7.47;4.32;;;;;;;-146.19;100.00;65364.44;10519161;28;20044;-58
2021/12/10 20:18:35;;;;;;;7.53;4.13;;;;;;;-146.19;100.00;65364.44;10507162;28;20441;-54
2021/12/10 20:24:02;;;;;;;6.75;3.80;;;;;;;-146.19;100.00;65364.44;10515971;28;20040;-53
2021/12/10 20:29:27;;;;;;;5.03;3.28;;;;;;;-146.19;100.00;65364.44;10519621;28;20102;-54
2021/12/10 20:34:54;;;;;;;5.00;3.40;;;;;;;-146.19;100.00;65364.44;10511579;28;20105;-54
2021/12/10 20:40:29;;;;;;;5.20;3.40;;;;;;;-146.19;100.00;65364.44;10497626;28;20086;-55
2021/12/10 20:45:55;;;;;;;6.00;3.30;;;;;;;-146.19;100.00;65364.44;10474820;28;20122;-56
2021/12/10 20:51:38;;;;;;;4.35;3.13;;;;;;;-146.19;100.00;65364.44;10488943;28;20067;-54
2021/12/10 20:57:04;;;;;;;3.85;2.75;;;;;;;-146.19;100.00;65364.44;10505534;28;20048;-55
2021/12/10 21:02:28;;;;;;;5.15;3.08;;;;;;;-146.19;100.00;65364.44;10509211;28;20426;-54
2021/12/10 21:07:51;;;;;;;4.15;2.85;;;;;;;-146.19;100.00;65364.44;10527503;28;20045;-54
2021/12/10 21:13:11;;;;;;;5.63;3.00;;;;;;;-146.19;100.00;65364.44;10522490;28;20634;-55
2021/12/10 21:18:44;;;;;;;4.65;2.90;;;;;;;-146.19;100.00;65364.44;10541284;28;20043;-54
2021/12/10 21:24:13;;;;;;;4.70;3.05;;;;;;;-146.19;100.00;65364.44;10489437;28;20064;-55
2021/12/10 21:29:37;;;;;;;6.78;2.70;;;;;;;-146.19;100.00;65364.44;10508743;28;20052;-55
2021/12/10 21:35:18;;;;;;;4.50;2.70;;;;;;;-146.19;100.00;65364.44;10531243;28;20119;-55
2021/12/10 21:40:49;;;;;;;5.72;2.75;;;;;;;-146.19;100.00;65364.44;10493316;28;20036;-54
2021/12/10 21:46:27;;;;;;;4.88;3.00;;;;;;;-146.19;100.00;65364.44;10502790;28;20055;-54
2021/12/10 21:51:58;;;;;;;8.00;6.32;;;;;;;-146.19;100.00;65364.44;10488663;28;20036;-56
2021/12/10 21:57:24;;;;;;;4.45;3.30;;;;;;;-146.19;100.00;65364.44;10523046;28;20563;-54
2021/12/10 22:02:49;;;;;;;5.78;3.50;;;;;;;-146.19;100.00;65364.44;10507964;28;20051;-56
2021/12/10 22:08:16;;;;;;;7.05;3.13;;;;;;;-146.19;100.00;65364.44;10519394;28;20051;-55
2021/12/10 22:13:47;;;;;;;5.70;3.03;;;;;;;-146.19;100.00;65364.44;10506242;28;20094;-55
2021/12/10 22:19:11;;;;;;;5.60;3.03;;;;;;;-146.19;100.00;65364.44;10489959;28;20049;-55
2021/12/10 22:24:37;;;;;;;5.00;3.05;;;;;;;-146.19;100.00;65364.44;10486983;28;20597;-55
2021/12/10 22:30:02;;;;;;;4.90;2.78;;;;;;;-146.19;100.00;65364.44;10486847;28;20082;-55
2021/12/10 22:35:56;;;;;;;3.95;2.63;;;;;;;-146.19;100.00;65364.44;10557700;28;20054;-55
2021/12/10 22:41:16;;;;;;;4.35;2.85;;;;;;;-146.19;100.00;65364.44;10570942;28;20538;-55
2021/12/10 22:46:41;;;;;;;5.22;2.80;;;;;;;-146.19;100.00;65364.44;10564849;28;20040;-55
2021/12/10 22:52:32;;;;;;;3.25;2.70;;;;;;;-146.19;100.00;65364.44;10509146;28;20032;-56
2021/12/10 22:57:55;;;;;;;4.15;2.60;;;;;;;-146.19;100.00;65364.44;10528602;28;20119;-54
2021/12/10 23:03:24;;;;;;;4.72;2.90;;;;;;;-146.19;100.00;65364.44;10521551;28;20043;-55
2021/12/10 23:09:14;;;;;;;5.28;2.75;;;;;;;-146.19;100.00;65364.44;10518288;28;20052;-56
2021/12/10 23:14:36;;;;;;;5.50;2.72;;;;;;;-146.19;100.00;65364.44;10493833;28;20063;-56
2021/12/10 23:20:06;;;;;;;6.03;2.72;;;;;;;-146.19;100.00;65364.44;10503031;28;20048;-55
2021/12/10 23:25:29;;;;;;;3.95;2.60;;;;;;;-146.19;100.00;65364.44;10533887;28;20068;-56
2021/12/10 23:30:58;;;;;;;3.88;2.67;;;;;;;-146.19;100.00;65364.44;10534281;28;20360;-56
2021/12/10 23:36:23;;;;;;;4.03;2.47;;;;;;;-146.19;100.00;65364.44;10531707;28;20063;-55
2021/12/10 23:41:56;;;;;;;3.63;2.40;;;;;;;-146.19;100.00;65364.44;10513210;28;20052;-56
2021/12/10 23:47:19;;;;;;;3.75;2.45;;;;;;;-146.19;100.00;65364.44;10494249;28;20049;-56
2021/12/10 23:52:42;;;;;;;3.83;2.55;;;;;;;-146.19;100.00;65364.44;10494298;28;20055;-55
2021/12/10 23:58:11;;;;;;;3.60;2.33;;;;;;;-146.19;100.00;65364.44;10511700;28;20048;-55
